Time;durP1;ratioP1;P1;durP2;ratioP2;P2;SDS_P1;SDS_P2;PMS_P1;PMS_P2;Temp;Humidity;BMP_temperature;BMP_pressure;BME280_temperature;BME280_humidity;BME280_pressure;Samples;Min_cycle;Max_cycle;Signal;HPM_P1;HPM_P2
2024/01/05 00:01:28;;;;;;;2.75;1.80;;;6.10;66.50;;;1.12;100.00;94499.81;4972739;28;20026;-56
2024/01/05 00:03:54;;;;;;;1.63;1.25;;;6.20;66.60;;;1.09;100.00;94511.56;4973062;28;20499;-51
2024/01/05 00:06:20;;;;;;;2.53;1.55;;;6.10;66.70;;;1.18;100.00;94500.72;4973061;28;20056;-55
2024/01/05 00:08:46;;;;;;;3.38;1.20;;;6.10;66.80;;;1.25;100.00;94493.50;4973164;28;20104;-57
2024/01/05 00:11:19;;;;;;;2.03;1.20;;;6.20;67.00;;;1.37;100.00;94479.31;4971899;28;20481;-53
2024/01/05 00:13:46;;;;;;;7.57;1.73;;;6.20;67.30;;;1.50;100.00;94499.22;4973047;28;20026;-54
2024/01/05 00:16:20;;;;;;;3.35;1.40;;;6.20;68.10;;;1.64;100.00;94504.22;4971175;28;20018;-57
2024/01/05 00:18:47;;;;;;;2.45;1.23;;;6.30;67.50;;;1.68;100.00;94521.09;4971598;28;20068;-58
2024/01/05 00:21:27;;;;;;;1.50;1.10;;;6.40;67.40;;;1.67;100.00;94516.88;4972676;28;20018;-58
2024/01/05 00:23:56;;;;;;;2.58;1.10;;;6.40;67.20;;;1.67;100.00;94516.88;4970943;28;20029;-57
2024/01/05 00:26:22;;;;;;;2.72;1.33;;;6.50;67.00;;;1.67;100.00;94515.03;4965810;28;20019;-58
2024/01/05 00:28:53;;;;;;;2.10;1.00;;;6.50;67.00;;;1.69;100.00;94517.41;4971918;28;20033;-56
2024/01/05 00:31:19;;;;;;;2.03;1.23;;;6.50;66.70;;;1.68;100.00;94516.63;4966041;28;20105;-56
2024/01/05 00:33:45;;;;;;;6.90;1.33;;;6.60;66.70;;;1.69;100.00;94515.59;4972320;28;20136;-55
2024/01/05 00:36:11;;;;;;;1.50;1.15;;;6.60;66.70;;;1.73;100.00;94523.81;4972034;28;20034;-56
2024/01/05 00:38:41;;;;;;;3.13;1.02;;;6.70;66.60;;;1.73;100.00;94523.81;4971408;28;20385;-58
2024/01/05 00:41:06;;;;;;;3.72;1.10;;;6.70;66.50;;;1.72;100.00;94516.94;4971386;28;20022;-52
2024/01/05 00:43:32;;;;;;;2.00;1.10;;;6.70;66.30;;;1.64;100.00;94519.97;4969513;28;20026;-53
2024/01/05 00:45:58;;;;;;;4.00;1.05;;;6.70;66.20;;;1.65;100.00;94522.34;4971887;28;20105;-51
2024/01/05 00:48:24;;;;;;;2.80;1.10;;;6.70;66.20;;;1.64;100.00;94522.59;4972956;28;20054;-56
2024/01/05 00:50:50;;;;;;;3.67;1.10;;;6.70;66.10;;;1.64;100.00;94509.47;4971497;28;20046;-56
2024/01/05 00:53:15;;;;;;;2.90;0.98;;;6.70;66.00;;;1.65;100.00;94503.19;4971063;28;20036;-56
2024/01/05 00:55:41;;;;;;;2.17;0.80;;;6.70;66.00;;;1.56;100.00;94500.91;4972484;28;20473;-55
2024/01/05 00:58:08;;;;;;;2.85;1.00;;;6.60;65.90;;;1.49;100.00;94497.66;4971134;28;20452;-56
2024/01/05 01:00:34;;;;;;;6.80;1.30;;;6.60;65.90;;;1.54;100.00;94495.13;4970620;28;20045;-56
2024/01/05 01:03:01;;;;;;;2.78;1.02;;;6.60;66.00;;;1.61;100.00;94500.22;4971634;28;20034;-56
2024/01/05 01:05:26;;;;;;;1.63;1.10;;;6.60;66.00;;;1.64;100.00;94498.97;4970912;28;20030;-53
2024/01/05 01:07:52;;;;;;;2.53;1.55;;;6.60;66.00;;;1.64;100.00;94501.59;4971806;28;20618;-56
2024/01/05 01:10:18;;;;;;;1.52;0.98;;;6.60;66.00;;;1.60;100.00;94511.78;4970201;28;20028;-55
2024/01/05 01:12:44;;;;;;;2.85;1.55;;;6.60;66.00;;;1.55;100.00;94509.84;4971878;28;20101;-56
2024/01/05 01:15:10;;;;;;;3.00;1.13;;;6.60;66.00;;;1.51;100.00;94508.72;4972552;28;20473;-56
2024/01/05 01:17:35;;;;;;;1.63;1.10;;;6.50;65.90;;;1.45;100.00;94506.22;4971103;28;20089;-57
2024/01/05 01:20:03;;;;;;;4.43;1.20;;;6.50;65.90;;;1.41;100.00;94505.91;4971874;28;20062;-54
2024/01/05 01:22:29;;;;;;;4.50;1.27;;;6.50;66.00;;;1.43;100.00;94508.28;4970936;28;20041;-54
2024/01/05 01:24:54;;;;;;;2.65;1.17;;;6.50;66.10;;;1.45;100.00;94514.91;4971766;28;20037;-52
2024/01/05 01:27:20;;;;;;;1.90;0.90;;;6.40;66.00;;;1.43;100.00;94524.03;4984039;28;20031;-56
2024/01/05 01:29:48;;;;;;;2.78;1.20;;;6.40;66.10;;;1.41;100.00;94521.66;4971086;28;20037;-52
2024/01/05 01:32:14;;;;;;;1.42;0.98;;;6.50;66.10;;;1.34;100.00;94511.25;4970337;28;20576;-50
2024/01/05 01:34:40;;;;;;;4.35;0.80;;;6.40;66.00;;;1.23;100.00;94498.19;4971522;28;20317;-56
2024/01/05 01:37:06;;;;;;;3.05;1.17;;;6.40;66.00;;;1.23;100.00;94487.72;4969917;28;20413;-56
2024/01/05 01:39:32;;;;;;;2.60;1.10;;;6.40;66.00;;;1.24;100.00;94492.72;4971743;28;20018;-56
2024/01/05 01:42:00;;;;;;;2.40;1.23;;;6.30;66.10;;;1.30;100.00;94491.78;4969810;28;20029;-56
2024/01/05 01:44:27;;;;;;;2.22;1.33;;;6.30;66.20;;;1.32;100.00;94494.19;4971572;28;20033;-56
2024/01/05 01:46:56;;;;;;;2.50;1.40;;;6.30;66.20;;;1.26;100.00;94489.88;4970544;28;20026;-57
2024/01/05 01:49:24;;;;;;;2.50;1.00;;;6.30;66.20;;;1.21;100.00;94474.00;4966033;28;20076;-58
2024/01/05 01:51:51;;;;;;;2.25;1.23;;;6.30;66.30;;;1.28;100.00;94469.41;4984671;28;20030;-58
2024/01/05 01:54:17;;;;;;;4.00;1.60;;;6.30;66.40;;;1.29;100.00;94471.03;4985271;28;20037;-57
2024/01/05 01:56:48;;;;;;;2.08;1.10;;;6.30;66.50;;;1.30;100.00;94473.41;4984651;28;20026;-58
2024/01/05 01:59:15;;;;;;;3.28;1.27;;;6.30;66.60;;;1.33;100.00;94472.94;4982758;28;20034;-57
2024/01/05 02:01:43;;;;;;;2.95;1.20;;;6.30;66.60;;;1.42;100.00;94469.97;4969726;28;20022;-58
2024/01/05 02:04:18;;;;;;;3.40;1.02;;;6.40;66.60;;;1.47;100.00;94462.16;4970702;28;20090;-57
2024/01/05 02:06:46;;;;;;;3.47;1.60;;;6.40;66.70;;;1.49;100.00;94465.34;4965516;28;20025;-58
2024/01/05 02:09:13;;;;;;;1.63;1.40;;;6.40;66.60;;;1.58;100.00;94470.00;4971048;28;20503;-56
2024/01/05 02:11:39;;;;;;;3.45;1.10;;;6.50;66.80;;;1.63;100.00;94474.56;4970095;28;20022;-58
2024/01/05 02:14:05;;;;;;;4.45;1.55;;;6.50;66.70;;;1.67;100.00;94465.16;4970231;28;20127;-58
2024/01/05 02:16:31;;;;;;;2.72;1.17;;;6.50;66.70;;;1.70;100.00;94464.69;4970463;28;20434;-56
2024/01/05 02:18:57;;;;;;;4.40;1.42;;;6.60;67.50;;;1.74;100.00;94467.63;4971275;28;20171;-56
2024/01/05 02:21:33;;;;;;;5.53;1.33;;;6.70;66.70;;;1.77;100.00;94459.28;4971088;28;20030;-55
2024/01/05 02:23:59;;;;;;;2.13;1.25;;;6.70;66.60;;;1.78;100.00;94474.78;4969984;28;20057;-55
2024/01/05 02:26:25;;;;;;;1.92;1.10;;;6.70;66.50;;;1.81;100.00;94478.78;4971063;28;20026;-57
2024/01/05 02:28:51;;;;;;;3.60;1.10;;;6.80;66.50;;;1.81;100.00;94470.91;4969870;28;20030;-56
2024/01/05 02:31:17;;;;;;;2.13;1.38;;;6.80;66.30;;;1.81;100.00;94476.16;4970844;28;20339;-57
2024/01/05 02:33:43;;;;;;;6.45;1.40;;;6.80;66.30;;;1.80;100.00;94469.31;4969912;28;20050;-50
2024/01/05 02:36:09;;;;;;;1.60;0.95;;;6.80;66.20;;;1.80;100.00;94472.75;4969465;28;20018;-52
2024/01/05 02:38:35;;;;;;;2.38;0.90;;;6.90;66.20;;;1.82;100.00;94472.53;4985111;28;20040;-49
2024/01/05 02:41:01;;;;;;;3.55;1.35;;;6.90;66.20;;;1.83;100.00;94469.63;4967725;28;20022;-50
2024/01/05 02:43:27;;;;;;;2.40;1.20;;;6.90;66.20;;;1.86;100.00;94465.75;4967747;28;20026;-48
2024/01/05 02:45:53;;;;;;;6.70;1.50;;;6.90;66.20;;;1.82;100.00;94462.81;4970676;28;20022;-50
2024/01/05 02:48:18;;;;;;;2.08;1.20;;;6.90;66.10;;;1.83;100.00;94459.13;4969072;28;20038;-52
2024/01/05 02:50:44;;;;;;;3.00;0.98;;;6.90;66.10;;;1.88;100.00;94447.13;4970027;28;20019;-54
2024/01/05 02:53:10;;;;;;;1.58;1.13;;;7.00;66.10;;;1.94;100.00;94452.22;4968962;28;20380;-52
2024/01/05 02:55:36;;;;;;;2.05;1.20;;;7.00;66.00;;;1.99;100.00;94459.38;4968934;28;20026;-52
2024/01/05 02:58:04;;;;;;;2.25;1.27;;;7.00;66.10;;;2.01;100.00;94442.38;4969039;28;20045;-53
2024/01/05 03:00:30;;;;;;;2.60;0.93;;;7.00;66.00;;;2.06;100.00;94439.81;4968127;28;20068;-49
2024/01/05 03:02:56;;;;;;;3.65;1.10;;;7.10;66.00;;;2.06;100.00;94421.41;4969996;28;20018;-49
2024/01/05 03:05:22;;;;;;;1.65;1.08;;;7.10;66.00;;;2.11;100.00;94425.16;4968831;28;20018;-49
2024/01/05 03:07:48;;;;;;;6.78;1.10;;;7.10;65.90;;;2.07;100.00;94424.84;4969259;28;20030;-49
2024/01/05 03:10:14;;;;;;;2.10;0.90;;;7.10;65.80;;;2.08;100.00;94410.69;4968343;28;20033;-50
2024/01/05 03:12:41;;;;;;;1.95;1.00;;;7.10;65.80;;;2.11;100.00;94415.47;4969654;28;20049;-50
2024/01/05 03:15:08;;;;;;;3.83;1.23;;;7.20;66.60;;;2.08;100.00;94411.47;4971453;28;20076;-48
2024/01/05 03:17:34;;;;;;;2.47;1.20;;;7.20;65.90;;;2.12;100.00;94411.78;4971281;28;20032;-49
2024/01/05 03:20:00;;;;;;;3.05;0.80;;;7.20;65.80;;;2.12;100.00;94405.75;4972569;28;20109;-50
2024/01/05 03:22:26;;;;;;;3.90;1.35;;;7.20;65.80;;;2.18;100.00;94415.28;4971445;28;20476;-49
2024/01/05 03:24:52;;;;;;;3.70;1.13;;;7.20;65.80;;;2.19;100.00;94409.00;4973553;28;20548;-50
2024/01/05 03:27:18;;;;;;;2.38;1.13;;;7.20;65.90;;;2.22;100.00;94404.03;4973475;28;20030;-50
2024/01/05 03:29:44;;;;;;;2.88;0.90;;;7.20;66.60;;;2.24;100.00;94393.31;4972698;28;20022;-50
2024/01/05 03:32:10;;;;;;;2.50;1.00;;;7.20;65.80;;;2.25;100.00;94390.44;4972871;28;20088;-50
2024/01/05 03:34:37;;;;;;;2.25;0.77;;;7.20;65.80;;;2.30;100.00;94393.13;4972610;28;20019;-48
2024/01/05 03:37:03;;;;;;;2.03;1.10;;;7.30;65.80;;;2.30;100.00;94384.47;4973128;28;20130;-50
2024/01/05 03:39:29;;;;;;;2.63;0.90;;;7.30;65.80;;;2.35;100.00;94387.16;4972012;28;20076;-51
2024/01/05 03:41:55;;;;;;;1.17;0.95;;;7.30;65.70;;;2.33;100.00;94376.09;4971234;28;20018;-54
2024/01/05 03:44:20;;;;;;;1.73;0.90;;;7.30;65.80;;;2.32;100.00;94369.25;4973306;28;20448;-48
2024/01/05 03:46:52;;;;;;;1.85;0.88;;;7.40;65.80;;;2.36;100.00;94353.78;4972168;28;20106;-50
2024/01/05 03:49:18;;;;;;;0.80;0.60;;;7.40;65.80;;;2.36;100.00;94354.59;4973074;28;20030;-49
2024/01/05 03:51:44;;;;;;;1.98;0.90;;;7.40;65.80;;;2.40;100.00;94363.56;4972796;28;20531;-51
2024/01/05 03:54:10;;;;;;;1.73;0.82;;;7.40;65.80;;;2.40;100.00;94360.94;4969793;28;20040;-48
2024/01/05 03:56:46;;;;;;;3.30;0.88;;;7.40;65.80;;;2.45;100.00;94355.75;4972796;28;20030;-49
2024/01/05 03:59:13;;;;;;;2.50;0.90;;;7.40;65.80;;;2.50;100.00;94350.53;4969758;28;20041;-50
2024/01/05 04:01:49;;;;;;;3.72;0.90;;;7.40;65.70;;;2.60;100.00;94346.44;4964056;28;20029;-48
2024/01/05 04:04:15;;;;;;;3.53;0.98;;;7.50;65.80;;;2.64;100.00;94356.25;4970737;28;20107;-55
2024/01/05 04:06:42;;;;;;;1.08;0.85;;;7.50;65.80;;;2.67;100.00;94347.88;4952183;28;20022;-51
2024/01/05 04:09:10;;;;;;;1.83;0.90;;;7.60;66.50;;;2.61;100.00;94348.06;4970913;28;20026;-52
2024/01/05 04:11:38;;;;;;;5.10;1.10;;;7.60;65.60;;;2.67;100.00;94333.94;4971388;28;20380;-51
2024/01/05 04:14:06;;;;;;;2.15;0.90;;;7.60;65.60;;;2.71;100.00;94327.94;4966071;28;20477;-53
2024/01/05 04:16:32;;;;;;;1.92;0.90;;;7.60;65.60;;;2.75;100.00;94328.22;4972148;28;20117;-54
2024/01/05 04:18:57;;;;;;;2.50;1.05;;;7.60;65.60;;;2.73;100.00;94328.50;4974017;28;20513;-51
2024/01/05 04:21:23;;;;;;;2.58;0.88;;;7.70;65.60;;;2.77;100.00;94326.16;4967088;28;20217;-48
2024/01/05 04:23:53;;;;;;;2.33;0.80;;;7.70;65.60;;;2.86;100.00;94329.16;4974388;28;20470;-49
2024/01/05 04:26:19;;;;;;;2.70;0.80;;;7.70;65.60;;;2.95;100.00;94333.72;4968018;28;20041;-48
2024/01/05 04:28:45;;;;;;;3.83;1.05;;;7.80;65.60;;;3.04;100.00;94341.16;4975314;28;20029;-53
2024/01/05 04:31:10;;;;;;;1.58;0.70;;;7.90;65.60;;;3.15;95.50;94340.25;4974048;28;20037;-48
2024/01/05 04:33:36;;;;;;;2.15;0.70;;;7.90;65.30;;;3.27;99.03;94326.94;4976164;28;20050;-51
2024/01/05 04:36:03;;;;;;;1.45;0.70;;;8.00;65.30;;;3.32;98.78;94334.88;4991192;28;20552;-52
2024/01/05 04:38:30;;;;;;;1.17;0.68;;;8.10;65.20;;;3.35;96.14;94335.16;4970032;28;20057;-50
2024/01/05 04:40:57;;;;;;;2.40;0.70;;;8.10;65.00;;;3.39;97.04;94333.63;4975021;28;20109;-51
2024/01/05 04:43:23;;;;;;;1.63;0.90;;;8.20;64.90;;;3.41;97.77;94328.91;4949807;28;20409;-50
2024/01/05 04:45:48;;;;;;;2.17;0.70;;;8.30;64.80;;;3.39;97.70;94332.84;4965916;28;20026;-49
2024/01/05 04:48:14;;;;;;;1.27;0.63;;;8.30;64.60;;;3.33;98.61;94332.00;4969196;28;20034;-53
2024/01/05 04:50:40;;;;;;;3.45;0.95;;;8.30;64.50;;;3.32;98.78;94330.41;4965468;28;20034;-48
2024/01/05 04:53:06;;;;;;;1.35;0.90;;;8.30;64.40;;;3.36;98.49;94323.59;4975631;28;20029;-48
2024/01/05 04:55:31;;;;;;;3.55;0.98;;;8.30;64.30;;;3.38;97.97;94325.97;4971624;28;20029;-50
2024/01/05 04:57:57;;;;;;;1.30;0.82;;;8.30;64.20;;;3.38;97.96;94328.59;4965528;28;20110;-53
2024/01/05 05:00:23;;;;;;;3.75;0.93;;;8.30;64.10;;;3.39;97.84;94319.69;4970059;28;20026;-50
2024/01/05 05:02:49;;;;;;;2.40;0.75;;;8.30;64.10;;;3.44;98.15;94317.88;4974812;28;20030;-52
2024/01/05 05:05:15;;;;;;;3.05;1.00;;;8.30;64.10;;;3.48;97.67;94326.88;4969261;28;20071;-49
2024/01/05 05:07:40;;;;;;;1.92;0.98;;;8.40;64.10;;;3.48;98.54;94326.88;4967684;28;20117;-52
2024/01/05 05:10:07;;;;;;;3.50;0.90;;;8.40;64.10;;;3.47;98.77;94327.91;4963669;28;20554;-55
2024/01/05 05:12:33;;;;;;;2.22;0.93;;;8.40;64.10;;;3.43;98.75;94320.75;4976242;28;20050;-48
2024/01/05 05:14:59;;;;;;;2.60;0.93;;;8.40;63.90;;;3.36;99.31;94314.91;4972267;28;20049;-50
2024/01/05 05:17:25;;;;;;;4.28;0.82;;;8.40;63.80;;;3.36;99.19;94320.19;4985467;28;20053;-50
2024/01/05 05:19:54;;;;;;;1.95;0.90;;;8.40;63.80;;;3.37;99.22;94325.19;4970978;28;20025;-49
2024/01/05 05:22:22;;;;;;;1.50;1.00;;;8.40;63.80;;;3.39;99.74;94330.22;4970307;28;20056;-49
2024/01/05 05:24:50;;;;;;;2.25;0.80;;;8.40;63.90;;;3.40;99.56;94326.53;4972423;28;20024;-48
2024/01/05 05:27:17;;;;;;;3.47;0.90;;;8.40;63.90;;;3.52;98.53;94335.06;4971877;28;20053;-49
2024/01/05 05:29:42;;;;;;;4.30;1.05;;;8.40;64.00;;;3.70;98.13;94318.09;4971425;28;20564;-51
2024/01/05 05:32:08;;;;;;;1.67;0.90;;;8.50;64.20;;;3.83;97.14;94330.03;4971752;28;20050;-48
2024/01/05 05:34:34;;;;;;;3.40;1.17;;;8.60;64.20;;;3.98;95.77;94324.06;4971256;28;20026;-48
2024/01/05 05:37:00;;;;;;;2.00;0.85;;;8.60;64.20;;;4.06;95.24;94318.34;4971622;28;20374;-50
2024/01/05 05:39:25;;;;;;;2.45;1.00;;;8.70;64.10;;;4.13;93.94;94321.53;4972142;28;20105;-49
2024/01/05 05:41:51;;;;;;;2.40;1.00;;;8.80;64.10;;;4.21;94.17;94320.28;4970570;28;20105;-48
2024/01/05 05:44:17;;;;;;;2.88;0.95;;;8.90;64.00;;;4.27;93.43;94330.59;4971987;28;20100;-49
2024/01/05 05:46:43;;;;;;;2.67;1.17;;;8.90;63.80;;;4.34;90.33;94325.88;4970698;28;20056;-48
2024/01/05 05:49:10;;;;;;;1.65;1.00;;;9.00;63.60;;;4.45;89.46;94331.19;4970706;28;20030;-49
2024/01/05 05:51:35;;;;;;;1.65;1.00;;;9.10;63.50;;;4.51;89.75;94327.53;4971710;28;20025;-50
2024/01/05 05:54:02;;;;;;;1.88;0.90;;;9.10;63.20;;;4.54;90.23;94334.94;4971116;28;20069;-53
2024/01/05 05:56:28;;;;;;;1.70;0.93;;;9.20;63.10;;;4.54;89.95;94333.09;4971526;28;20454;-56
2024/01/05 05:58:54;;;;;;;2.88;1.13;;;9.20;62.90;;;4.55;89.43;94331.25;4970320;28;20026;-49
2024/01/05 06:01:19;;;;;;;4.10;1.00;;;9.30;62.80;;;4.55;89.70;94329.41;4970055;28;20033;-53
2024/01/05 06:03:45;;;;;;;3.17;1.00;;;9.30;62.70;;;4.53;90.34;94320.94;4982983;28;20032;-54
2024/01/05 06:06:23;;;;;;;2.33;1.30;;;9.30;62.60;;;4.50;90.75;94325.94;4970315;28;20057;-48
2024/01/05 06:08:54;;;;;;;1.92;0.90;;;9.30;62.50;;;4.48;88.83;94325.41;4970360;28;20037;-52
2024/01/05 06:11:21;;;;;;;2.83;1.50;;;9.30;62.40;;;4.44;91.50;94329.63;4969427;28;20022;-53
2024/01/05 06:13:50;;;;;;;4.68;1.30;;;9.30;63.20;;;4.38;92.31;94336.69;4971438;28;20045;-51
2024/01/05 06:16:16;;;;;;;2.47;1.33;;;9.30;62.30;;;4.29;94.03;94338.22;4970318;28;20420;-49
2024/01/05 06:18:43;;;;;;;3.35;1.00;;;9.30;62.30;;;4.16;94.58;94337.63;4971357;28;20030;-52
2024/01/05 06:21:09;;;;;;;4.22;1.30;;;9.20;62.20;;;4.12;94.42;94328.66;4971305;28;20030;-52
2024/01/05 06:23:35;;;;;;;6.72;1.95;;;9.20;62.30;;;4.10;95.75;94332.56;4968441;28;20022;-48
2024/01/05 06:26:01;;;;;;;3.72;1.50;;;9.10;62.20;;;4.10;94.61;94333.38;4971097;28;20053;-49
2024/01/05 06:28:26;;;;;;;2.17;1.25;;;9.10;62.20;;;4.10;95.06;94327.31;4969942;28;20415;-48
2024/01/05 06:30:52;;;;;;;2.83;1.40;;;9.10;62.30;;;3.92;96.75;94321.41;4971113;28;20633;-50
2024/01/05 06:33:18;;;;;;;5.03;1.50;;;9.00;62.30;;;3.96;96.55;94324.34;4969642;28;20046;-50
2024/01/05 06:35:44;;;;;;;2.65;1.30;;;9.00;62.30;;;3.97;96.27;94325.13;4969992;28;20018;-50
2024/01/05 06:38:10;;;;;;;7.30;1.40;;;8.90;62.30;;;3.95;95.95;94322.75;4971037;28;20037;-51
2024/01/05 06:40:36;;;;;;;2.60;1.20;;;8.90;62.30;;;3.90;96.22;94320.06;4969153;28;20084;-48
2024/01/05 06:43:02;;;;;;;2.47;0.93;;;8.90;62.40;;;3.85;98.86;94314.75;4971008;28;20026;-53
2024/01/05 06:45:28;;;;;;;3.97;1.45;;;8.90;62.40;;;3.76;99.60;94319.72;4971188;28;20053;-51
2024/01/05 06:47:54;;;;;;;2.97;0.90;;;8.80;62.40;;;3.71;99.76;94317.03;4970181;28;20026;-51
2024/01/05 06:50:19;;;;;;;4.75;1.25;;;8.80;62.40;;;3.66;100.00;94323.03;4973595;28;20388;-49
2024/01/05 06:52:45;;;;;;;3.30;0.82;;;8.70;62.40;;;3.51;100.00;94320.31;4973947;28;20105;-48
2024/01/05 06:55:12;;;;;;;3.08;0.80;;;8.70;62.60;;;3.45;100.00;94321.31;4974880;28;20018;-50
2024/01/05 06:57:37;;;;;;;4.55;1.23;;;8.60;62.60;;;3.48;100.00;94313.72;4974861;28;20030;-50
2024/01/05 07:00:11;;;;;;;2.20;1.20;;;8.60;62.80;;;3.41;100.00;94321.00;4972840;28;20077;-50
2024/01/05 07:02:38;;;;;;;1.33;0.90;;;8.50;62.90;;;3.41;100.00;94325.47;4975020;28;20022;-50
2024/01/05 07:05:04;;;;;;;2.08;1.13;;;8.40;62.90;;;3.35;100.00;94324.63;4973889;28;20531;-48
2024/01/05 07:07:31;;;;;;;4.25;1.13;;;8.40;63.00;;;3.37;100.00;94329.66;4974610;28;20105;-53
2024/01/05 07:09:57;;;;;;;1.30;0.88;;;8.40;63.10;;;3.31;100.00;94341.19;4974700;28;20108;-53
2024/01/05 07:12:28;;;;;;;1.50;1.08;;;8.40;63.20;;;3.34;100.00;94335.41;4973546;28;20109;-51
2024/01/05 07:14:54;;;;;;;2.42;1.23;;;8.30;63.30;;;3.32;100.00;94337.50;4974982;28;20026;-49
2024/01/05 07:17:20;;;;;;;2.10;1.13;;;8.30;63.30;;;3.32;100.00;94342.75;4973676;28;20033;-49
2024/01/05 07:19:46;;;;;;;3.38;1.50;;;8.30;63.40;;;3.31;100.00;94330.66;4974304;28;20485;-51
2024/01/05 07:22:11;;;;;;;1.92;1.00;;;8.30;63.40;;;3.33;100.00;94324.09;4972422;28;20033;-50
2024/01/05 07:24:38;;;;;;;3.08;1.10;;;8.30;63.50;;;3.33;100.00;94326.72;4974557;28;20022;-51
2024/01/05 07:27:09;;;;;;;5.15;1.15;;;8.30;63.50;;;3.32;100.00;94325.16;4974367;28;20030;-50
2024/01/05 07:29:36;;;;;;;2.83;1.08;;;8.30;63.50;;;3.32;100.00;94317.25;4973858;28;20030;-48
2024/01/05 07:32:04;;;;;;;1.98;1.00;;;8.30;63.50;;;3.32;100.00;94322.53;4974025;28;20045;-50
2024/01/05 07:34:30;;;;;;;1.52;0.98;;;8.30;63.50;;;3.33;100.00;94324.09;4973605;28;20018;-51
2024/01/05 07:36:56;;;;;;;2.45;1.30;;;8.40;63.50;;;3.38;100.00;94318.88;4974209;28;20040;-49
2024/01/05 07:39:22;;;;;;;3.17;1.08;;;8.40;64.30;;;3.47;100.00;94306.03;4974417;28;20033;-52
2024/01/05 07:41:49;;;;;;;1.40;1.10;;;8.40;63.60;;;3.51;100.00;94308.97;4972938;28;20113;-52
2024/01/05 07:44:14;;;;;;;2.45;1.00;;;8.40;63.50;;;3.52;100.00;94311.38;4974296;28;20037;-51
2024/01/05 07:46:42;;;;;;;3.72;1.05;;;8.50;63.60;;;3.59;100.00;94309.31;4973341;28;20030;-50
2024/01/05 07:49:09;;;;;;;2.33;1.15;;;8.50;63.60;;;3.61;98.48;94306.44;4973084;28;20117;-48
2024/01/05 07:51:36;;;;;;;3.15;1.10;;;8.60;63.50;;;3.62;97.96;94295.63;4972667;28;20030;-50
2024/01/05 07:54:01;;;;;;;3.22;1.00;;;8.60;63.50;;;3.70;97.20;94291.75;4971479;28;20026;-54
2024/01/05 07:56:27;;;;;;;2.13;0.90;;;8.70;63.40;;;3.80;96.06;94285.75;4973797;28;20026;-54
2024/01/05 07:58:53;;;;;;;1.85;0.90;;;8.70;63.30;;;3.88;96.60;94287.91;4972804;28;20398;-51
2024/01/05 08:01:20;;;;;;;2.30;0.98;;;8.80;63.20;;;3.95;96.28;94293.78;4972816;28;20037;-54
2024/01/05 08:03:48;;;;;;;6.20;1.45;;;8.90;63.10;;;3.99;96.09;94284.31;4972719;28;20062;-48
2024/01/05 08:06:19;;;;;;;2.85;1.17;;;8.90;63.00;;;4.05;96.28;94280.66;4972374;28;20022;-53
2024/01/05 08:08:48;;;;;;;1.52;0.93;;;9.00;62.90;;;4.12;96.51;94291.75;4973583;28;20034;-49
2024/01/05 08:11:15;;;;;;;2.90;1.10;;;9.10;62.90;;;4.16;96.25;94289.41;4972101;28;20025;-49
2024/01/05 08:13:46;;;;;;;7.30;1.90;;;9.20;62.80;;;4.17;96.47;94299.69;4972032;28;20036;-50
2024/01/05 08:16:12;;;;;;;4.65;1.33;;;9.20;62.70;;;4.22;96.43;94291.00;4971126;28;20026;-53
2024/01/05 08:18:41;;;;;;;2.58;1.65;;;9.30;62.60;;;4.25;95.38;94279.16;4973676;28;20397;-49
2024/01/05 08:21:07;;;;;;;8.40;2.08;;;9.40;62.50;;;4.30;95.76;94279.19;4973403;28;20096;-55
2024/01/05 08:23:33;;;;;;;3.58;1.73;;;9.40;62.40;;;4.32;95.79;94285.78;4972339;28;20486;-48
2024/01/05 08:26:00;;;;;;;2.78;1.10;;;9.50;62.40;;;4.35;96.06;94293.19;4973368;28;20165;-50
2024/01/05 08:28:26;;;;;;;2.15;1.10;;;9.60;62.30;;;4.40;96.05;94287.16;4970883;28;20131;-48
2024/01/05 08:30:54;;;;;;;3.10;1.20;;;9.60;63.00;;;4.42;96.27;94287.69;4971997;28;20022;-51
2024/01/05 08:33:19;;;;;;;1.83;1.08;;;9.70;62.10;;;4.47;95.99;94284.28;4973645;28;20046;-50
2024/01/05 08:35:46;;;;;;;2.88;1.50;;;9.70;62.00;;;4.51;95.93;94287.97;4970835;28;20029;-51
2024/01/05 08:38:12;;;;;;;1.48;1.13;;;9.80;62.00;;;4.54;96.14;94284.81;4973159;28;20033;-52
2024/01/05 08:40:37;;;;;;;7.03;1.30;;;9.90;62.00;;;4.57;95.12;94287.72;4971767;28;20022;-50
2024/01/05 08:43:03;;;;;;;2.30;1.30;;;9.90;61.80;;;4.58;94.25;94293.81;4972718;28;20022;-51
2024/01/05 08:45:33;;;;;;;4.72;1.40;;;10.00;61.60;;;4.64;94.24;94288.31;4971786;28;20030;-52
2024/01/05 08:48:00;;;;;;;5.72;1.60;;;10.00;61.40;;;4.68;96.06;94293.06;4970894;28;20061;-56
2024/01/05 08:50:26;;;;;;;5.10;1.42;;;10.10;61.40;;;4.73;95.53;94285.16;4985554;28;20072;-50
2024/01/05 08:52:52;;;;;;;3.83;1.30;;;10.20;61.40;;;4.81;95.26;94289.94;4971964;28;20038;-49
2024/01/05 08:55:18;;;;;;;3.28;1.05;;;10.30;62.10;;;4.89;94.36;94289.44;4972935;28;20466;-50
2024/01/05 08:57:46;;;;;;;3.58;1.38;;;10.40;61.20;;;4.97;94.45;94282.84;4972715;28;20030;-53
2024/01/05 09:00:12;;;;;;;2.83;1.70;;;10.50;61.00;;;5.05;94.45;94285.78;4968768;28;20057;-53
2024/01/05 09:02:38;;;;;;;5.25;1.40;;;10.60;61.00;;;5.13;93.04;94289.75;4969344;28;20030;-51
2024/01/05 09:05:04;;;;;;;3.03;1.52;;;10.70;60.80;;;5.21;93.24;94291.88;4971782;28;20022;-52
2024/01/05 09:07:34;;;;;;;2.00;1.02;;;10.80;60.70;;;5.27;92.33;94297.97;4972495;28;20041;-52
2024/01/05 09:10:01;;;;;;;1.45;1.08;;;10.90;60.50;;;5.39;91.67;94297.69;4971223;28;20028;-50
2024/01/05 09:12:28;;;;;;;1.95;1.00;;;11.00;60.40;;;5.49;91.46;94306.44;4971061;28;20022;-50
2024/01/05 09:14:54;;;;;;;3.75;1.30;;;11.00;60.20;;;5.55;89.39;94300.09;4969166;28;20022;-51
2024/01/05 09:17:20;;;;;;;2.65;1.20;;;11.10;60.00;;;5.65;88.35;94303.81;4965760;28;20097;-52
2024/01/05 09:19:46;;;;;;;1.95;0.90;;;11.20;59.90;;;5.70;86.45;94312.53;4968374;28;20105;-54
2024/01/05 09:22:12;;;;;;;2.25;1.13;;;11.30;59.70;;;5.75;84.93;94309.06;4966821;28;20152;-54
2024/01/05 09:24:39;;;;;;;2.35;1.00;;;11.30;59.60;;;5.81;84.28;94318.59;4967095;28;20197;-53
2024/01/05 09:27:05;;;;;;;1.95;1.42;;;11.40;59.40;;;5.78;82.74;94322.53;4983058;28;20033;-52
2024/01/05 09:29:32;;;;;;;3.10;1.10;;;11.40;59.20;;;5.87;83.04;94327.31;4968524;28;20033;-53
2024/01/05 09:31:58;;;;;;;3.65;1.33;;;11.40;59.00;;;5.93;84.31;94323.66;4969324;28;20066;-54
2024/01/05 09:34:24;;;;;;;3.15;1.48;;;11.40;59.00;;;5.95;82.73;94317.00;4967264;28;20087;-51
2024/01/05 09:36:51;;;;;;;1.77;1.23;;;11.40;58.90;;;6.00;82.92;94324.94;4969280;28;20018;-50
2024/01/05 09:39:17;;;;;;;1.73;1.23;;;11.40;58.80;;;6.01;82.08;94323.88;4967854;28;20089;-52
2024/01/05 09:41:47;;;;;;;3.30;1.40;;;11.40;58.80;;;5.98;81.66;94326.25;4967523;28;20069;-50
2024/01/05 09:44:13;;;;;;;2.55;1.40;;;11.40;58.60;;;5.99;81.27;94330.50;4968108;28;20064;-50
2024/01/05 09:46:41;;;;;;;2.22;1.30;;;11.40;58.60;;;6.01;81.62;94331.00;4967759;28;20112;-51
2024/01/05 09:49:08;;;;;;;1.92;1.20;;;11.40;58.50;;;6.01;81.36;94321.22;4966261;28;20030;-55
2024/01/05 09:51:36;;;;;;;3.53;1.40;;;11.40;58.50;;;6.04;81.94;94322.56;4969504;28;20385;-52
2024/01/05 09:54:02;;;;;;;1.52;1.00;;;11.40;58.40;;;6.10;82.49;94318.06;4966871;28;20125;-55
2024/01/05 09:56:29;;;;;;;3.42;1.48;;;11.50;58.40;;;6.12;82.36;94326.53;4968514;28;20037;-50
2024/01/05 09:58:56;;;;;;;2.58;1.30;;;11.50;58.40;;;6.12;82.50;94313.31;4965933;28;20048;-52
2024/01/05 10:01:30;;;;;;;2.60;1.23;;;11.50;58.40;;;6.13;81.01;94320.97;4968098;28;20018;-55
2024/01/05 10:04:02;;;;;;;4.50;1.30;;;11.60;58.20;;;6.17;81.33;94319.38;4968312;28;20483;-55
2024/01/05 10:06:30;;;;;;;2.35;1.30;;;11.60;58.10;;;6.20;83.15;94316.19;4970565;28;20034;-52
2024/01/05 10:08:59;;;;;;;2.03;1.35;;;11.60;58.10;;;6.26;82.85;94315.13;4971290;28;20026;-52
2024/01/05 10:11:41;;;;;;;3.13;1.30;;;11.70;58.10;;;6.29;81.36;94319.06;4970410;28;20022;-50
2024/01/05 10:14:14;;;;;;;2.88;1.33;;;11.70;58.00;;;6.29;81.22;94316.44;4971471;28;20053;-52
2024/01/05 10:16:40;;;;;;;2.35;1.30;;;11.70;58.00;;;6.31;81.11;94316.97;4970361;28;20018;-54
2024/01/05 10:19:14;;;;;;;2.25;1.15;;;11.70;57.90;;;6.31;81.20;94308.25;4971309;28;20030;-52
2024/01/05 10:21:47;;;;;;;2.30;1.30;;;11.70;57.80;;;6.37;80.93;94307.97;4971474;28;20026;-53
2024/01/05 10:24:26;;;;;;;3.47;1.80;;;11.70;57.80;;;6.37;81.56;94304.53;4968578;28;20451;-52
2024/01/05 10:27:08;;;;;;;2.13;1.45;;;11.80;57.90;;;6.40;81.90;94293.41;4971377;28;20025;-52